createdAt,value
2022-09-27T00:01:37.473Z,97149.13
2022-09-27T00:04:05.196Z,97156.44
2022-09-27T00:06:34.908Z,97154.59
2022-09-27T00:09:04.751Z,97147.44
2022-09-27T00:11:35.055Z,97152.25
2022-09-27T00:14:04.853Z,97157.63
2022-09-27T00:16:34.458Z,97155.91
2022-09-27T00:19:03.488Z,97149.56
2022-09-27T00:21:32.072Z,97156.06
2022-09-27T00:24:00.310Z,97149.19
2022-09-27T00:26:28.192Z,97155.06
2022-09-27T00:28:56.446Z,97154.84
2022-09-27T00:31:29.399Z,97152.09
2022-09-27T00:33:58.991Z,97141.16
2022-09-27T00:36:28.068Z,97152.31
2022-09-27T00:38:56.744Z,97145.72
2022-09-27T00:41:26.555Z,97155.69
2022-09-27T00:43:56.700Z,97157.41
2022-09-27T00:46:28.777Z,97151.88
2022-09-27T00:49:04.090Z,97160.31
2022-09-27T00:51:33.266Z,97156.75
2022-09-27T00:54:01.951Z,97155.78
2022-09-27T00:56:31.534Z,97151.81
2022-09-27T00:59:01.145Z,97153.59
2022-09-27T01:01:30.849Z,97152.31
2022-09-27T01:04:03.034Z,97159.72
2022-09-27T01:06:30.941Z,97155.91
2022-09-27T01:08:58.818Z,97153.72
2022-09-27T01:11:36.842Z,97152.66
2022-09-27T01:14:12.974Z,97152.03
2022-09-27T01:16:49.401Z,97152.38
2022-09-27T01:19:29.816Z,97153.66
2022-09-27T01:21:59.612Z,97150.34
2022-09-27T01:24:47.616Z,97154.56
2022-09-27T01:27:53.890Z,97149.63
2022-09-27T01:30:24.944Z,97150.69
2022-09-27T01:32:58.025Z,97148.84
2022-09-27T01:35:32.716Z,97150.25
2022-09-27T01:38:08.780Z,97143.69
2022-09-27T01:40:42.020Z,97142.13
2022-09-27T01:43:14.566Z,97142.00
2022-09-27T01:45:45.545Z,97144.53
2022-09-27T01:48:16.667Z,97143.47
2022-09-27T01:50:49.097Z,97141.34
2022-09-27T01:53:20.381Z,97140.25
2022-09-27T01:55:49.724Z,97138.94
2022-09-27T01:58:21.588Z,97142.28
2022-09-27T02:00:52.373Z,97130.19
2022-09-27T02:03:22.111Z,97141.34
2022-09-27T02:05:53.994Z,97145.53
2022-09-27T02:08:29.581Z,97139.03
2022-09-27T02:10:58.929Z,97145.59
2022-09-27T02:13:32.550Z,97146.44
2022-09-27T02:16:08.011Z,97147.06
2022-09-27T02:18:39.414Z,97142.13
2022-09-27T02:21:08.955Z,97145.94
2022-09-27T02:23:41.074Z,97142.06
2022-09-27T02:26:14.140Z,97151.19
2022-09-27T02:28:44.487Z,97153.06
2022-09-27T02:31:13.616Z,97154.78
2022-09-27T02:33:45.038Z,97164.69
2022-09-27T02:36:12.725Z,97164.81
2022-09-27T02:38:40.681Z,97169.00
2022-09-27T02:41:14.739Z,97182.06
2022-09-27T02:43:42.927Z,97181.44
2022-09-27T02:46:23.849Z,97188.38
2022-09-27T02:48:58.618Z,97194.41
2022-09-27T02:51:37.419Z,97209.25
2022-09-27T02:54:15.863Z,97206.81
2022-09-27T02:56:52.637Z,97206.06
2022-09-27T02:59:27.256Z,97219.06
2022-09-27T03:02:11.146Z,97216.66
2022-09-27T03:04:44.809Z,97222.97
2022-09-27T03:07:13.951Z,97221.91
2022-09-27T03:09:43.753Z,97225.59
2022-09-27T03:12:11.830Z,97229.50
2022-09-27T03:14:39.526Z,97237.41
2022-09-27T03:17:08.706Z,97238.75
2022-09-27T03:19:36.385Z,97241.41
2022-09-27T03:22:04.100Z,97236.25
2022-09-27T03:24:31.779Z,97240.69
2022-09-27T03:26:59.472Z,97245.97
2022-09-27T03:29:27.767Z,97245.09
2022-09-27T03:31:55.407Z,97253.22
2022-09-27T03:34:24.704Z,97238.69
2022-09-27T03:36:52.786Z,97251.00
2022-09-27T03:39:20.714Z,97242.28
2022-09-27T03:41:48.351Z,97235.78
2022-09-27T03:44:16.092Z,97246.69
2022-09-27T03:46:43.793Z,97249.63
2022-09-27T03:49:11.465Z,97256.69
2022-09-27T03:51:40.960Z,97253.88
2022-09-27T03:54:08.852Z,97249.75
2022-09-27T03:56:36.527Z,97250.50
2022-09-27T03:59:04.452Z,97254.69
2022-09-27T04:01:32.145Z,97261.31
2022-09-27T04:03:59.852Z,97256.69
2022-09-27T04:06:27.897Z,97256.47
2022-09-27T04:08:56.984Z,97255.53
2022-09-27T04:11:24.703Z,97259.97
2022-09-27T04:13:52.483Z,97263.00
2022-09-27T04:16:20.385Z,97267.44
2022-09-27T04:18:48.129Z,97269.63
2022-09-27T04:21:16.224Z,97258.19
2022-09-27T04:23:44.135Z,97271.63
2022-09-27T04:26:13.665Z,97260.28
2022-09-27T04:28:41.401Z,97269.31
2022-09-27T04:31:09.123Z,97271.31
2022-09-27T04:33:36.858Z,97277.63
2022-09-27T04:36:22.205Z,97277.94
2022-09-27T04:38:49.910Z,97281.63
2022-09-27T04:41:18.894Z,97280.78
2022-09-27T04:43:46.550Z,97278.06
2022-09-27T04:46:14.837Z,97281.09
2022-09-27T04:48:42.499Z,97282.47
2022-09-27T04:51:10.721Z,97286.47
2022-09-27T04:53:38.792Z,97288.16
2022-09-27T04:56:07.251Z,97294.47
2022-09-27T04:58:36.363Z,97292.66
2022-09-27T05:01:04.384Z,97294.66
2022-09-27T05:03:32.275Z,97297.19
2022-09-27T05:06:00.639Z,97304.22
2022-09-27T05:08:28.645Z,97299.81
2022-09-27T05:10:56.579Z,97301.72
2022-09-27T05:13:24.318Z,97300.88
2022-09-27T05:15:53.410Z,97300.34
2022-09-27T05:18:21.057Z,97300.88
2022-09-27T05:20:48.862Z,97309.28
2022-09-27T05:23:16.532Z,97309.59
2022-09-27T05:25:44.683Z,97308.97
2022-09-27T05:28:12.477Z,97320.22
2022-09-27T05:30:40.109Z,97323.19
2022-09-27T05:33:09.200Z,97319.81
2022-09-27T05:35:36.917Z,97320.84
2022-09-27T05:38:04.728Z,97323.59
2022-09-27T05:40:47.617Z,97323.81
2022-09-27T05:43:16.011Z,97337.06
2022-09-27T05:45:44.208Z,97342.09
2022-09-27T05:48:14.612Z,97351.03
2022-09-27T05:50:42.349Z,97352.28
2022-09-27T05:53:10.805Z,97349.66
2022-09-27T05:55:38.487Z,97355.03
2022-09-27T05:58:07.581Z,97367.13
2022-09-27T06:00:36.393Z,97367.97
2022-09-27T06:03:05.693Z,97371.97
2022-09-27T06:05:37.100Z,97366.41
2022-09-27T06:08:06.366Z,97371.25
2022-09-27T06:10:34.215Z,97375.56
2022-09-27T06:13:05.437Z,97378.81
2022-09-27T06:15:33.619Z,97376.00
2022-09-27T06:18:04.982Z,97380.09
2022-09-27T06:20:34.202Z,97379.56
2022-09-27T06:23:07.384Z,97387.44
2022-09-27T06:25:35.637Z,97384.94
2022-09-27T06:28:03.754Z,97395.56
2022-09-27T06:30:32.668Z,97396.72
2022-09-27T06:33:01.736Z,97387.53
2022-09-27T06:35:31.080Z,97402.50
2022-09-27T06:38:04.109Z,97400.50
2022-09-27T06:40:32.134Z,97409.13
2022-09-27T06:43:03.488Z,97419.41
2022-09-27T06:45:31.683Z,97416.78
2022-09-27T06:47:59.490Z,97423.72
2022-09-27T06:50:27.362Z,97423.75
2022-09-27T06:52:55.125Z,97434.69
2022-09-27T06:55:24.121Z,97434.06
2022-09-27T06:58:13.413Z,97441.84
2022-09-27T07:00:42.207Z,97440.69
2022-09-27T07:03:11.339Z,97447.31
2022-09-27T07:05:39.197Z,97439.88
2022-09-27T07:08:06.913Z,97443.53
2022-09-27T07:10:37.687Z,97445.63
2022-09-27T07:13:07.390Z,97445.88
2022-09-27T07:15:36.332Z,97456.50
2022-09-27T07:18:05.772Z,97456.28
2022-09-27T07:20:37.077Z,97462.09
2022-09-27T07:23:05.226Z,97463.56
2022-09-27T07:25:33.782Z,97462.63
2022-09-27T07:28:04.349Z,97456.31
2022-09-27T07:30:32.628Z,97461.78
2022-09-27T07:33:00.629Z,97458.19
2022-09-27T07:35:28.739Z,97460.00
2022-09-27T07:37:57.447Z,97457.38
2022-09-27T07:40:25.471Z,97467.78
2022-09-27T07:42:55.983Z,97470.00
2022-09-27T07:45:25.550Z,97468.63
2022-09-27T07:47:53.341Z,97474.31
2022-09-27T07:50:21.425Z,97461.16
2022-09-27T07:52:51.134Z,97464.09
2022-09-27T07:55:19.722Z,97466.72
2022-09-27T07:57:47.442Z,97472.69
2022-09-27T08:00:16.931Z,97494.34
2022-09-27T08:02:46.159Z,97488.00
2022-09-27T08:05:14.659Z,97496.69
2022-09-27T08:07:42.407Z,97494.69
2022-09-27T08:10:10.663Z,97496.81
2022-09-27T08:12:38.876Z,97506.47
2022-09-27T08:15:07.320Z,97494.63
2022-09-27T08:17:35.148Z,97498.91
2022-09-27T08:20:06.793Z,97508.72
2022-09-27T08:22:34.459Z,97502.38
2022-09-27T08:25:02.087Z,97500.81
2022-09-27T08:27:29.727Z,97513.16
2022-09-27T08:29:57.588Z,97505.72
2022-09-27T08:32:25.428Z,97513.63
2022-09-27T08:34:53.077Z,97506.03
2022-09-27T08:37:22.067Z,97503.38
2022-09-27T08:39:50.220Z,97502.22
2022-09-27T08:42:26.842Z,97499.06
2022-09-27T08:45:03.444Z,97489.59
2022-09-27T08:47:35.941Z,97497.41
2022-09-27T08:50:06.837Z,97498.72
2022-09-27T08:52:39.877Z,97510.34
2022-09-27T08:55:15.682Z,97503.34
2022-09-27T08:57:43.292Z,97506.53
2022-09-27T09:00:13.568Z,97509.78
2022-09-27T09:02:42.969Z,97505.53
2022-09-27T09:05:13.228Z,97506.72
2022-09-27T09:07:55.653Z,97504.09
2022-09-27T09:10:53.247Z,97505.97
2022-09-27T09:13:31.408Z,97507.03
2022-09-27T09:16:03.245Z,97509.47
2022-09-27T09:18:36.850Z,97513.44
2022-09-27T09:21:12.682Z,97510.72
2022-09-27T09:24:17.006Z,97511.69
2022-09-27T09:26:51.103Z,97503.03
2022-09-27T09:29:28.193Z,97507.84
2022-09-27T09:32:01.614Z,97506.28
2022-09-27T09:34:30.795Z,97510.38
2022-09-27T09:37:02.155Z,97512.78
2022-09-27T09:39:35.779Z,97517.81
2022-09-27T09:42:08.749Z,97513.63
2022-09-27T09:44:46.729Z,97505.81
2022-09-27T09:47:20.165Z,97508.19
2022-09-27T09:49:52.503Z,97502.41
2022-09-27T09:52:22.850Z,97504.44
2022-09-27T09:54:53.731Z,97503.09
2022-09-27T09:57:24.796Z,97509.88
2022-09-27T09:59:55.699Z,97509.16
2022-09-27T10:02:29.684Z,97502.28
2022-09-27T10:04:57.599Z,97500.75
2022-09-27T10:07:25.636Z,97500.03
2022-09-27T10:09:56.688Z,97503.75
2022-09-27T10:12:24.445Z,97510.84
2022-09-27T10:14:53.690Z,97504.59
2022-09-27T10:17:23.018Z,97495.22
2022-09-27T10:19:52.624Z,97501.34
2022-09-27T10:22:25.087Z,97499.44
2022-09-27T10:24:59.531Z,97498.47
2022-09-27T10:27:27.774Z,97498.47
2022-09-27T10:29:59.161Z,97498.00
2022-09-27T10:32:31.413Z,97500.16
2022-09-27T10:35:24.170Z,97493.06
2022-09-27T10:37:52.575Z,97494.88
2022-09-27T10:40:29.822Z,97490.75
2022-09-27T10:42:57.587Z,97492.69
2022-09-27T10:45:31.049Z,97494.59
2022-09-27T10:47:59.490Z,97488.19
2022-09-27T10:53:18.704Z,97479.16
2022-09-27T10:55:50.914Z,97476.06
2022-09-27T10:58:21.167Z,97473.59
2022-09-27T11:00:57.690Z,97481.03
2022-09-27T11:03:28.826Z,97474.91
2022-09-27T11:05:56.903Z,97471.69
2022-09-27T11:08:30.010Z,97469.75
2022-09-27T11:11:08.236Z,97465.81
2022-09-27T11:13:36.098Z,97467.25
2022-09-27T11:16:17.442Z,97464.94
2022-09-27T11:18:51.218Z,97467.19
2022-09-27T11:21:24.589Z,97461.50
2022-09-27T11:24:09.141Z,97462.66
2022-09-27T11:26:48.043Z,97466.63
2022-09-27T11:29:25.658Z,97467.19
2022-09-27T11:32:06.552Z,97466.91
2022-09-27T11:34:45.178Z,97465.34
2022-09-27T11:37:17.704Z,97453.28
2022-09-27T11:39:55.705Z,97458.53
2022-09-27T11:42:41.243Z,97461.94
2022-09-27T11:45:41.005Z,97455.88
2022-09-27T11:48:22.209Z,97453.88
2022-09-27T11:51:00.973Z,97450.19
2022-09-27T11:53:37.573Z,97447.78
2022-09-27T11:56:13.383Z,97443.16
2022-09-27T11:59:01.103Z,97437.66
2022-09-27T12:01:35.863Z,97442.66
2022-09-27T12:04:18.987Z,97446.91
2022-09-27T12:06:52.151Z,97439.16
2022-09-27T12:09:22.005Z,97442.91
2022-09-27T12:11:52.361Z,97450.66
2022-09-27T12:14:26.941Z,97463.56
2022-09-27T12:16:55.888Z,97458.72
2022-09-27T12:19:25.637Z,97454.88
2022-09-27T12:21:53.260Z,97451.63
2022-09-27T12:24:22.616Z,97461.72
2022-09-27T12:26:51.917Z,97454.88
2022-09-27T12:29:23.380Z,97453.56
2022-09-27T12:31:57.462Z,97460.59
2022-09-27T12:34:31.420Z,97447.19
2022-09-27T12:37:03.430Z,97458.19
2022-09-27T12:39:41.773Z,97467.66
2022-09-27T12:42:16.145Z,97456.13
2022-09-27T12:44:48.965Z,97450.78
2022-09-27T12:47:35.379Z,97450.84
2022-09-27T12:50:07.169Z,97448.75
2022-09-27T12:52:38.468Z,97445.59
2022-09-27T12:55:26.949Z,97451.09
2022-09-27T12:58:18.706Z,97452.50
2022-09-27T13:00:55.901Z,97456.84
2022-09-27T13:03:33.958Z,97453.34
2022-09-27T13:06:39.975Z,97452.53
2022-09-27T13:09:24.628Z,97441.56
2022-09-27T13:12:01.337Z,97444.19
2022-09-27T13:14:31.516Z,97448.28
2022-09-27T13:17:00.474Z,97438.31
2022-09-27T13:19:42.941Z,97430.25
2022-09-27T13:22:12.250Z,97430.97
2022-09-27T13:24:48.044Z,97429.06
2022-09-27T13:27:37.610Z,97427.38
2022-09-27T13:30:50.618Z,97421.72
2022-09-27T13:33:44.280Z,97424.41
2022-09-27T13:36:22.357Z,97423.56
2022-09-27T13:38:57.585Z,97419.59
2022-09-27T13:41:25.188Z,97420.16
2022-09-27T13:44:05.100Z,97415.13
2022-09-27T13:46:34.305Z,97411.25
2022-09-27T13:49:06.370Z,97411.81
2022-09-27T13:51:42.032Z,97416.16
2022-09-27T13:54:38.904Z,97417.41
2022-09-27T13:57:09.697Z,97419.59
2022-09-27T13:59:43.229Z,97420.00
2022-09-27T14:02:15.105Z,97424.22
2022-09-27T14:04:48.304Z,97436.13
2022-09-27T14:07:18.447Z,97432.91
2022-09-27T14:09:49.230Z,97439.56
2022-09-27T14:12:20.209Z,97435.31
2022-09-27T14:14:49.822Z,97432.41
2022-09-27T14:17:17.722Z,97435.84
2022-09-27T14:19:49.206Z,97435.44
2022-09-27T14:22:18.155Z,97439.81
2022-09-27T14:24:48.698Z,97433.94
2022-09-27T14:27:19.016Z,97432.97
2022-09-27T14:29:49.506Z,97435.66
2022-09-27T14:32:18.725Z,97431.63
2022-09-27T14:34:47.731Z,97441.97
2022-09-27T14:37:26.328Z,97441.16
2022-09-27T14:39:55.615Z,97443.69
2022-09-27T14:42:26.372Z,97449.03
2022-09-27T14:44:54.865Z,97439.31
2022-09-27T14:47:24.818Z,97437.31
2022-09-27T14:49:56.714Z,97445.25
2022-09-27T14:52:27.788Z,97437.91
2022-09-27T14:55:00.248Z,97442.00
2022-09-27T14:57:30.107Z,97434.72
2022-09-27T14:59:59.648Z,97435.31
2022-09-27T15:02:28.716Z,97433.50
2022-09-27T15:04:57.620Z,97429.31
2022-09-27T15:07:25.615Z,97440.44
2022-09-27T15:09:53.403Z,97440.97
2022-09-27T15:12:26.225Z,97449.56
2022-09-27T15:14:58.114Z,97448.34
2022-09-27T15:17:26.399Z,97441.03
2022-09-27T15:20:02.271Z,97448.00
2022-09-27T15:22:38.448Z,97443.25
2022-09-27T15:25:19.455Z,97451.03
2022-09-27T15:27:52.498Z,97454.91
2022-09-27T15:30:25.552Z,97457.31
2022-09-27T15:32:57.040Z,97465.84
2022-09-27T15:35:28.657Z,97459.06
2022-09-27T15:38:18.422Z,97463.44
2022-09-27T15:41:08.310Z,97463.34
2022-09-27T15:43:41.715Z,97465.19
2022-09-27T15:46:29.607Z,97463.66
2022-09-27T15:49:23.702Z,97461.81
2022-09-27T15:51:54.376Z,97470.22
2022-09-27T15:54:22.737Z,97456.88
2022-09-27T15:56:55.254Z,97468.78
2022-09-27T15:59:25.312Z,97469.94
2022-09-27T16:01:56.665Z,97482.13
2022-09-27T16:04:24.683Z,97483.06
2022-09-27T16:06:55.961Z,97475.78
2022-09-27T16:09:24.296Z,97483.66
2022-09-27T16:11:52.175Z,97481.06
2022-09-27T16:14:19.939Z,97485.16
2022-09-27T16:16:49.244Z,97486.78
2022-09-27T16:19:17.340Z,97487.25
2022-09-27T16:21:45.791Z,97488.72
2022-09-27T16:24:14.761Z,97487.78
2022-09-27T16:26:42.399Z,97489.16
2022-09-27T16:29:14.859Z,97497.41
2022-09-27T16:31:44.283Z,97493.06
2022-09-27T16:34:13.117Z,97484.19
2022-09-27T16:36:41.612Z,97492.09
2022-09-27T16:39:13.015Z,97490.94
2022-09-27T16:41:43.803Z,97477.97
2022-09-27T16:44:13.504Z,97478.38
2022-09-27T16:46:42.545Z,97478.50
2022-09-27T16:49:32.316Z,97479.25
2022-09-27T16:52:02.986Z,97487.91
2022-09-27T16:54:31.396Z,97479.78
2022-09-27T16:57:01.037Z,97474.09
2022-09-27T16:59:29.556Z,97475.16
2022-09-27T17:01:58.287Z,97475.47
2022-09-27T17:04:33.609Z,97475.38
2022-09-27T17:07:01.995Z,97485.06
2022-09-27T17:09:30.347Z,97478.44
2022-09-27T17:11:58.653Z,97486.44
2022-09-27T17:14:28.631Z,97491.50
2022-09-27T17:16:57.263Z,97490.75
2022-09-27T17:19:25.838Z,97493.25
2022-09-27T17:21:55.543Z,97497.16
2022-09-27T17:24:23.963Z,97497.44
2022-09-27T17:26:51.995Z,97499.22
2022-09-27T17:29:20.345Z,97499.94
2022-09-27T17:31:50.054Z,97500.00
2022-09-27T17:34:17.847Z,97508.06
2022-09-27T17:36:48.386Z,97513.00
2022-09-27T17:39:17.623Z,97509.72
2022-09-27T17:41:45.455Z,97510.84
2022-09-27T17:44:13.957Z,97517.25
2022-09-27T17:46:42.285Z,97508.53
2022-09-27T17:49:29.515Z,97505.78
2022-09-27T17:51:57.253Z,97513.03
2022-09-27T17:54:27.817Z,97515.38
2022-09-27T17:56:56.233Z,97504.06
2022-09-27T17:59:23.854Z,97518.50
2022-09-27T18:01:51.569Z,97509.81
2022-09-27T18:04:20.927Z,97506.16
2022-09-27T18:06:48.693Z,97516.22
2022-09-27T18:09:17.825Z,97508.53
2022-09-27T18:11:46.132Z,97518.09
2022-09-27T18:14:14.080Z,97522.72
2022-09-27T18:16:43.003Z,97520.06
2022-09-27T18:19:12.703Z,97512.56
2022-09-27T18:21:41.911Z,97515.28
2022-09-27T18:24:11.021Z,97512.75
2022-09-27T18:26:40.112Z,97508.34
2022-09-27T18:29:09.334Z,97527.38
2022-09-27T18:31:37.028Z,97525.97
2022-09-27T18:34:04.686Z,97533.75
2022-09-27T18:36:32.376Z,97525.22
2022-09-27T18:39:02.725Z,97532.63
2022-09-27T18:41:32.394Z,97529.25
2022-09-27T18:44:01.320Z,97527.28
2022-09-27T18:46:35.469Z,97534.78
2022-09-27T18:49:04.812Z,97538.16
2022-09-27T18:51:32.601Z,97524.28
2022-09-27T18:54:02.617Z,97529.63
2022-09-27T18:56:30.682Z,97515.84
2022-09-27T18:58:58.660Z,97515.66
2022-09-27T19:01:26.525Z,97519.31
2022-09-27T19:03:55.562Z,97521.19
2022-09-27T19:06:24.416Z,97522.59
2022-09-27T19:08:56.803Z,97521.66
2022-09-27T19:11:26.785Z,97515.47
2022-09-27T19:13:55.445Z,97518.72
2022-09-27T19:16:24.225Z,97511.88
2022-09-27T19:18:52.689Z,97519.19
2022-09-27T19:21:21.911Z,97525.09
2022-09-27T19:23:51.254Z,97517.78
2022-09-27T19:26:20.443Z,97531.28
2022-09-27T19:28:49.752Z,97524.97
2022-09-27T19:31:19.256Z,97520.97
2022-09-27T19:33:46.965Z,97522.53
2022-09-27T19:36:17.765Z,97522.63
2022-09-27T19:38:45.529Z,97512.41
2022-09-27T19:41:14.569Z,97510.25
2022-09-27T19:43:43.828Z,97508.28
2022-09-27T19:46:15.094Z,97517.00
2022-09-27T19:48:43.564Z,97516.63
2022-09-27T19:51:14.910Z,97515.34
2022-09-27T19:53:42.703Z,97512.41
2022-09-27T19:56:11.373Z,97507.16
2022-09-27T19:58:40.260Z,97505.78
2022-09-27T20:01:09.305Z,97511.69
2022-09-27T20:03:39.805Z,97505.34
2022-09-27T20:06:09.316Z,97503.13
2022-09-27T20:08:37.067Z,97503.66
2022-09-27T20:11:06.977Z,97503.63
2022-09-27T20:13:35.752Z,97497.63
2022-09-27T20:16:04.536Z,97506.78
2022-09-27T20:18:32.265Z,97490.69
2022-09-27T20:21:02.402Z,97479.38
2022-09-27T20:23:30.427Z,97484.03
2022-09-27T20:26:02.119Z,97477.00
2022-09-27T20:28:30.103Z,97477.94
2022-09-27T20:30:59.403Z,97473.09
2022-09-27T20:33:42.617Z,97471.63
2022-09-27T20:36:12.382Z,97467.19
2022-09-27T20:38:40.794Z,97465.78
2022-09-27T20:41:09.242Z,97459.31
2022-09-27T20:43:37.401Z,97449.78
2022-09-27T20:46:06.695Z,97447.63
2022-09-27T20:48:35.014Z,97441.28
2022-09-27T20:51:04.938Z,97438.66
2022-09-27T20:53:34.657Z,97441.09
2022-09-27T20:56:03.478Z,97440.72
2022-09-27T20:58:32.147Z,97430.31
2022-09-27T21:01:05.683Z,97432.50
2022-09-27T21:03:33.718Z,97434.75
2022-09-27T21:06:02.262Z,97426.78
2022-09-27T21:08:30.640Z,97434.00
2022-09-27T21:11:05.462Z,97418.72
2022-09-27T21:13:33.125Z,97410.88
2022-09-27T21:16:02.063Z,97420.97
2022-09-27T21:18:29.701Z,97408.53
2022-09-27T21:21:01.342Z,97409.47
2022-09-27T21:23:29.926Z,97416.59
2022-09-27T21:26:08.132Z,97416.22
2022-09-27T21:28:36.644Z,97417.25
2022-09-27T21:31:05.790Z,97419.50
2022-09-27T21:33:33.528Z,97421.56
2022-09-27T21:36:01.712Z,97420.22
2022-09-27T21:38:29.820Z,97420.50
2022-09-27T21:40:58.317Z,97415.84
2022-09-27T21:43:28.870Z,97413.03
2022-09-27T21:46:06.229Z,97409.19
2022-09-27T21:48:34.526Z,97409.19
2022-09-27T21:51:06.585Z,97414.31
2022-09-27T21:53:34.707Z,97400.72
2022-09-27T21:56:03.403Z,97397.25
2022-09-27T21:58:35.634Z,97396.72
2022-09-27T22:01:10.530Z,97394.09
2022-09-27T22:03:39.207Z,97391.16
2022-09-27T22:06:10.575Z,97382.56
2022-09-27T22:08:38.308Z,97392.47
2022-09-27T22:11:06.216Z,97386.19
2022-09-27T22:13:35.330Z,97378.88
2022-09-27T22:16:04.340Z,97372.56
2022-09-27T22:18:31.981Z,97362.81
2022-09-27T22:21:03.681Z,97351.00
2022-09-27T22:23:31.594Z,97347.91
2022-09-27T22:25:59.608Z,97352.50
2022-09-27T22:28:27.743Z,97336.75
2022-09-27T22:30:56.737Z,97332.91
2022-09-27T22:33:24.501Z,97326.06
2022-09-27T22:35:52.104Z,97331.41
2022-09-27T22:38:19.660Z,97335.47
2022-09-27T22:40:54.763Z,97331.16
2022-09-27T22:43:22.393Z,97323.19
2022-09-27T22:45:49.947Z,97313.63
2022-09-27T22:48:19.369Z,97320.66
2022-09-27T22:50:47.117Z,97304.91
2022-09-27T22:53:15.177Z,97293.75
2022-09-27T22:55:42.872Z,97294.09
2022-09-27T22:58:10.427Z,97293.66
2022-09-27T23:00:38.945Z,97285.56
2022-09-27T23:03:06.606Z,97289.22
2022-09-27T23:05:35.574Z,97283.47
2022-09-27T23:08:03.092Z,97285.66
2022-09-27T23:10:30.965Z,97283.97
2022-09-27T23:12:58.974Z,97265.59
2022-09-27T23:15:26.540Z,97269.81
2022-09-27T23:17:54.932Z,97267.19
2022-09-27T23:20:23.382Z,97256.78
2022-09-27T23:22:53.488Z,97255.94
2022-09-27T23:25:21.973Z,97240.59
2022-09-27T23:27:50.207Z,97237.03
2022-09-27T23:30:19.541Z,97232.31
2022-09-27T23:32:53.253Z,97234.28
2022-09-27T23:35:20.743Z,97222.94
2022-09-27T23:37:48.274Z,97218.84
2022-09-27T23:40:17.217Z,97223.88
2022-09-27T23:42:44.821Z,97227.69
2022-09-27T23:45:12.324Z,97214.97
2022-09-27T23:47:40.499Z,97210.75
2022-09-27T23:50:09.721Z,97203.06
2022-09-27T23:52:37.253Z,97209.81
2022-09-27T23:55:05.989Z,97204.03
2022-09-27T23:57:34.858Z,97196.47
